Esterhazy, Canada
Current Conditions -  °F | °C
As of 5:00 AM on Wednesday 26 Nov 2014 (Local Time) from CYQV Reporting Station
Clear Clear  
Wind Chill: -27°   Ceiling: Unl
Heat Index: -13°   Visibility: 9mi
Dew Point: -17°   Wind: 6mph
Humidity: 84%   Direction: 290°WNW
Pressure: 30.36"   Gusts: NA
Location:  50.65°N, 102.08°W
Report Text: CYQV 261100Z AUTO 29005KT 9SM CLR M25/M27 A3036 RMK SLP338
Loading
Personal Weather Stations






























Interactive Weather Map New forecast layout! Learn more

10-Day Weather Forecast

Advertisements
Track Severe Weather on mobile